الكل
San Ysidro Ranch Airport (Catarina, TX) TS40 حالة الطقس
There is no TAF data available at TS40 or any nearby airports.
There is no METAR data available at TS40. Showing METAR data for KCZT (16 mi شمالي غربي).
محفوظات أحدث تقرير روتيني عن حالة الطقس من أجل الطيران (الميتار) CZT ( لا توجد بيانات لـTS40)
| Date | Time (CDT) | Flight Rules | Wind Dir. | Speed | Type | Height AGL (ft) | Visibility | Temp (°C) | Temp (°F) | Dew Point (°C) | Dew Point (°F) | Rel. Humid. | Pressure | Density Altitude | Remarks |
|---|---|---|---|---|---|---|---|---|---|---|---|---|---|---|---|
| 31-أغس | 00:55 | VFR | 130° | 7 kt | 10 miles | 29° | 84° | 21° | 69° | 62% | 29.96 in Hg | 2,238 ft | Wind gusting to 16 KT | ||
| 31-أغس | 00:35 | VFR | 130° | 8 kt | 10 miles | 29° | 84° | 22° | 71° | 66% | 29.96 in Hg | 2,238 ft | |||
| 31-أغس | 00:15 | VFR | 140° | 12 kt | 10 miles | 30° | 86° | 22° | 71° | 62% | 29.96 in Hg | 2,358 ft | |||
| 30-أغس | 23:55 | VFR | 140° | 12 kt | 10 miles | 30° | 86° | 21° | 69° | 59% | 29.95 in Hg | 2,368 ft | Wind gusting to 16 KT | ||
| 30-أغس | 23:35 | VFR | 140° | 8 kt | 10 miles | 30° | 86° | 21° | 69° | 59% | 29.94 in Hg | 2,378 ft | Wind gusting to 18 KT | ||
| 30-أغس | 23:15 | VFR | 140° | 9 kt | 10 miles | 31° | 87° | 21° | 69° | 55% | 29.94 in Hg | 2,498 ft | Wind gusting to 14 KT | ||
| 30-أغس | 22:55 | VFR | 120° | 13 kt | 10 miles | 31° | 87° | 21° | 69° | 55% | 29.93 in Hg | 2,508 ft | Wind gusting to 18 KT | ||
| 30-أغس | 22:35 | VFR | 130° | 12 kt | 10 miles | 31° | 87° | 21° | 69° | 55% | 29.92 in Hg | 2,518 ft | Wind gusting to 17 KT | ||
| 30-أغس | 22:15 | VFR | 120° | 12 kt | 10 miles | 32° | 89° | 21° | 69° | 52% | 29.91 in Hg | 2,648 ft | Wind gusting to 18 KT | ||
| 30-أغس | 21:55 | VFR | 130° | 14 kt | 10 miles | 33° | 91° | 21° | 69° | 49% | 29.90 in Hg | 2,778 ft | Wind gusting to 21 KT | ||
| 30-أغس | 21:35 | VFR | 130° | 11 kt | 10 miles | 33° | 91° | 21° | 69° | 49% | 29.89 in Hg | 2,788 ft | Wind gusting to 16 KT | ||
| 30-أغس | 21:15 | VFR | 130° | 10 kt | 10 miles | 33° | 91° | 17° | 62° | 39% | 29.88 in Hg | 2,798 ft | Wind gusting to 15 KT | ||
| 30-أغس | 20:55 | VFR | 110° | 4 kt | 10 miles | 32° | 89° | 17° | 62° | 41% | 29.87 in Hg | 2,688 ft | |||
| 30-أغس | 20:35 | VFR | 110° | 4 kt | 10 miles | 33° | 91° | 17° | 62° | 39% | 29.86 in Hg | 2,818 ft | |||
| 30-أغس | 20:15 | VFR | Calm | 10 miles | 34° | 93° | 17° | 62° | 36% | 29.86 in Hg | 2,938 ft | ||||
| 30-أغس | 19:55 | VFR | 110° | 5 kt | 10 miles | 35° | 95° | 17° | 62° | 34% | 29.86 in Hg | 3,058 ft | |||
| 30-أغس | 19:15 | VFR | 100° | 6 kt | 10 miles | 37° | 98° | 17° | 62° | 31% | 29.85 in Hg | 3,308 ft | |||
| 30-أغس | 18:55 | VFR | 90° | 8 kt | 10 miles | 37° | 98° | 17° | 62° | 31% | 29.85 in Hg | 3,308 ft | |||
| 30-أغس | 18:35 | VFR | 90° | 6 kt | 10 miles | 38° | 100° | 17° | 62° | 29% | 29.85 in Hg | 3,428 ft | |||
| 30-أغس | 18:15 | VFR | 120° | 6 kt | 10 miles | 38° | 100° | 17° | 62° | 29% | 29.85 in Hg | 3,428 ft | |||
| 30-أغس | 17:55 | VFR | 90° | 7 kt | 10 miles | 37° | 98° | 18° | 64° | 33% | 29.85 in Hg | 3,308 ft | |||
| 30-أغس | 17:15 | VFR | 110° | 8 kt | 10 miles | 38° | 100° | 18° | 64° | 31% | 29.85 in Hg | 3,428 ft | Wind gusting to 16 KT | ||
| 30-أغس | 16:55 | VFR | 80° | 9 kt | 10 miles | 39° | 102° | 18° | 64° | 30% | 29.86 in Hg | 3,538 ft | Wind gusting to 14 KT | ||
| 30-أغس | 16:15 | VFR | 90° | 8 kt | 10 miles | 38° | 100° | 18° | 64° | 31% | 29.88 in Hg | 3,398 ft |
تسجيل الدخول
| مُتصفحك غير مُدعَّم. قم بترقية متصفحك |
